SAM840 KMCF-ETAR
Flight info
| Callsign | SAM840 |
|---|---|
| Flight time | N/A |
| Altitude | 33000 |
| Route | WILON DCT CAMJO DCT TEEEM Q109 DFENC DCT KALDA Q445 KYSKY Q430 ACK DCT WHALE N251B NICSO/M082F350 DCT 48N050W 50N040W 52N030W 54N020W DCT DOGAL/N0469F350 DCT BEXET/N0465F370 DCT OSGAR DCT GTG DCT MORAG DCT NUCHU L607 KONAN DCT KOK UL607 FERDI DCT SPI T180 NIVNU T847 OLIVI Q762 XIDOD |
| Aircraft | B752/M-SDE3FHIM3RW/LB1 |
Departure
| Time | 2026-05-06 16:04 |
|---|---|
| Airport | MacDill Air Force Base (KMCF) |
Arrival
| Time | N/A |
|---|---|
| Airport | Ramstein Air Base (ETAR) |
| Time | Latitude | Longitude | Altitude | Speed | Heading |
|---|---|---|---|---|---|
| 2026-05-06 15:59 | 27.85160 | -82.49661 | 15 ft | 0 kts | 138° |
| 2026-05-06 16:00 | 27.85156 | -82.49659 | 15 ft | 1 kts | 152° |
| 2026-05-06 16:00 | 27.85142 | -82.49676 | 15 ft | 12 kts | 268° |
| 2026-05-06 16:01 | 27.85197 | -82.49834 | 15 ft | 24 kts | 291° |
| 2026-05-06 16:01 | 27.85301 | -82.50006 | 15 ft | 28 kts | 315° |
| 2026-05-06 16:01 | 27.85450 | -82.50175 | 15 ft | 32 kts | 315° |
| 2026-05-06 16:01 | 27.85617 | -82.50364 | 15 ft | 36 kts | 314° |
| 2026-05-06 16:02 | 27.85803 | -82.50575 | 15 ft | 39 kts | 314° |
| 2026-05-06 16:02 | 27.85989 | -82.50802 | 15 ft | 38 kts | 310° |
| 2026-05-06 16:02 | 27.86106 | -82.50975 | 15 ft | 12 kts | 283° |
| 2026-05-06 16:02 | 27.86101 | -82.51000 | 15 ft | 0 kts | 224° |
| 2026-05-06 16:03 | 27.86029 | -82.51070 | 15 ft | 37 kts | 220° |
| 2026-05-06 16:03 | 27.85660 | -82.51425 | 15 ft | 102 kts | 220° |
| 2026-05-06 16:03 | 27.84950 | -82.52106 | 15 ft | 163 kts | 220° |
| 2026-05-06 16:03 | 27.83980 | -82.53032 | 280 ft | 197 kts | 218° |
| 2026-05-06 16:04 | 27.82902 | -82.54028 | 1066 ft | 205 kts | 218° |
| 2026-05-06 16:04 | 27.81778 | -82.55044 | 1698 ft | 220 kts | 212° |
| 2026-05-06 16:04 | 27.80283 | -82.55597 | 2333 ft | 239 kts | 179° |
| 2026-05-06 16:04 | 27.78663 | -82.55141 | 3201 ft | 248 kts | 154° |
| 2026-05-06 16:05 | 27.77063 | -82.54275 | 3951 ft | 268 kts | 155° |
| 2026-05-06 16:05 | 27.75364 | -82.53414 | 4998 ft | 273 kts | 155° |
| 2026-05-06 16:05 | 27.73682 | -82.52491 | 6025 ft | 277 kts | 145° |
| 2026-05-06 16:05 | 27.72375 | -82.50916 | 6975 ft | 281 kts | 117° |
| 2026-05-06 16:06 | 27.71857 | -82.48814 | 7928 ft | 284 kts | 90° |
| 2026-05-06 16:06 | 27.72231 | -82.46677 | 8803 ft | 288 kts | 64° |
| 2026-05-06 16:06 | 27.73462 | -82.44887 | 9672 ft | 292 kts | 37° |
| 2026-05-06 16:06 | 27.75269 | -82.43900 | 10485 ft | 297 kts | 12° |
| 2026-05-06 16:07 | 27.77367 | -82.43779 | 10823 ft | 321 kts | 354° |
| 2026-05-06 16:07 | 27.79672 | -82.44116 | 11085 ft | 347 kts | 352° |
| 2026-05-06 16:07 | 27.82153 | -82.44498 | 11334 ft | 374 kts | 352° |
| 2026-05-06 16:07 | 27.84797 | -82.44901 | 11784 ft | 394 kts | 352° |
| 2026-05-06 16:08 | 27.87511 | -82.45317 | 12916 ft | 394 kts | 352° |
| 2026-05-06 16:08 | 27.90240 | -82.45735 | 13755 ft | 401 kts | 352° |
| 2026-05-06 16:08 | 27.92972 | -82.46154 | 14649 ft | 405 kts | 352° |
| 2026-05-06 16:08 | 27.95762 | -82.46582 | 15488 ft | 410 kts | 352° |
| 2026-05-06 16:09 | 27.98599 | -82.47018 | 16307 ft | 415 kts | 352° |
| 2026-05-06 16:09 | 28.01453 | -82.47457 | 17082 ft | 419 kts | 352° |
| 2026-05-06 16:09 | 28.04296 | -82.47878 | 18599 ft | 402 kts | 350° |
| 2026-05-06 16:09 | 28.06998 | -82.48300 | 19407 ft | 404 kts | 349° |
| 2026-05-06 16:10 | 28.09799 | -82.48737 | 19892 ft | 411 kts | 349° |
| 2026-05-06 16:10 | 28.12619 | -82.49172 | 20612 ft | 413 kts | 349° |
| 2026-05-06 16:10 | 28.15484 | -82.49616 | 21144 ft | 418 kts | 349° |
| 2026-05-06 16:10 | 28.18374 | -82.50061 | 21770 ft | 421 kts | 349° |
| 2026-05-06 16:11 | 28.21280 | -82.50510 | 22311 ft | 426 kts | 349° |
| 2026-05-06 16:11 | 28.24215 | -82.50963 | 22852 ft | 429 kts | 349° |
| 2026-05-06 16:11 | 28.27167 | -82.51419 | 23352 ft | 433 kts | 349° |
| 2026-05-06 16:11 | 28.30149 | -82.51880 | 23847 ft | 436 kts | 348° |
| 2026-05-06 16:12 | 28.33176 | -82.52348 | 24356 ft | 439 kts | 348° |
| 2026-05-06 16:12 | 28.36193 | -82.52814 | 24884 ft | 441 kts | 348° |
| 2026-05-06 16:12 | 28.39217 | -82.53283 | 25354 ft | 444 kts | 348° |
| 2026-05-06 16:12 | 28.42250 | -82.53753 | 25812 ft | 446 kts | 348° |
| 2026-05-06 16:13 | 28.45306 | -82.54226 | 26278 ft | 448 kts | 348° |
| 2026-05-06 16:13 | 28.48384 | -82.54703 | 26703 ft | 450 kts | 348° |
| 2026-05-06 16:13 | 28.51500 | -82.55187 | 27119 ft | 452 kts | 348° |
| 2026-05-06 16:13 | 28.54596 | -82.55668 | 27527 ft | 454 kts | 348° |
| 2026-05-06 16:14 | 28.57748 | -82.56157 | 27910 ft | 456 kts | 347° |
| 2026-05-06 16:14 | 28.60882 | -82.56644 | 28276 ft | 458 kts | 347° |
| 2026-05-06 16:14 | 28.64020 | -82.57132 | 28666 ft | 458 kts | 347° |
| 2026-05-06 16:14 | 28.67137 | -82.57616 | 29189 ft | 455 kts | 347° |
| 2026-05-06 16:15 | 28.70252 | -82.58100 | 29700 ft | 453 kts | 347° |
| 2026-05-06 16:15 | 28.73373 | -82.58586 | 30183 ft | 450 kts | 347° |
| 2026-05-06 16:15 | 28.76439 | -82.59064 | 30599 ft | 448 kts | 346° |
| 2026-05-06 16:15 | 28.79509 | -82.59543 | 30954 ft | 447 kts | 346° |
| 2026-05-06 16:16 | 28.82554 | -82.60018 | 31350 ft | 445 kts | 346° |
| 2026-05-06 16:16 | 28.85618 | -82.60497 | 31700 ft | 444 kts | 346° |
| 2026-05-06 16:16 | 28.88656 | -82.60973 | 32041 ft | 442 kts | 346° |
| 2026-05-06 16:16 | 28.91677 | -82.61444 | 32369 ft | 440 kts | 346° |
| 2026-05-06 16:17 | 28.94689 | -82.61916 | 32670 ft | 439 kts | 346° |
| 2026-05-06 16:17 | 28.97726 | -82.62392 | 32966 ft | 438 kts | 346° |
| 2026-05-06 16:17 | 29.00707 | -82.62859 | 33109 ft | 440 kts | 346° |
| 2026-05-06 16:17 | 29.03749 | -82.63339 | 33108 ft | 445 kts | 346° |
| 2026-05-06 16:18 | 29.09915 | -82.64307 | 33107 ft | 452 kts | 346° |
| 2026-05-06 16:18 | 29.16171 | -82.65290 | 33127 ft | 458 kts | 346° |
| 2026-05-06 16:19 | 29.22513 | -82.66287 | 33127 ft | 463 kts | 346° |
| 2026-05-06 16:19 | 29.28909 | -82.67293 | 33126 ft | 466 kts | 346° |
| 2026-05-06 16:20 | 29.35294 | -82.68299 | 33128 ft | 468 kts | 346° |
| 2026-05-06 16:20 | 29.41768 | -82.69228 | 33133 ft | 473 kts | 351° |
| 2026-05-06 16:21 | 29.48363 | -82.69254 | 33132 ft | 476 kts | 353° |
| 2026-05-06 16:21 | 29.54944 | -82.69228 | 33132 ft | 476 kts | 353° |
| 2026-05-06 16:22 | 29.61525 | -82.69194 | 33131 ft | 476 kts | 353° |
| 2026-05-06 16:22 | 29.68146 | -82.69156 | 33130 ft | 476 kts | 353° |
| 2026-05-06 16:23 | 29.74737 | -82.69115 | 33130 ft | 476 kts | 353° |
| 2026-05-06 16:23 | 29.81319 | -82.69075 | 33129 ft | 475 kts | 353° |
| 2026-05-06 16:24 | 29.87918 | -82.69035 | 33129 ft | 475 kts | 353° |
| 2026-05-06 16:24 | 29.94505 | -82.68993 | 33128 ft | 475 kts | 353° |
| 2026-05-06 16:25 | 30.01093 | -82.68951 | 33124 ft | 475 kts | 353° |
| 2026-05-06 16:25 | 30.07674 | -82.68391 | 33125 ft | 486 kts | 4° |